Time;durP1;ratioP1;P1;durP2;ratioP2;P2;SDS_P1;SDS_P2;PMS_P1;PMS_P2;Temp;Humidity;BMP_temperature;BMP_pressure;BME280_temperature;BME280_humidity;BME280_pressure;Samples;Min_cycle;Max_cycle;Signal;HPM_P1;HPM_P2
2022/05/17 00:00:18;;;;;;;4.78;3.45;;;;;;;17.53;60.15;100334.49;2916422;81;21085;-85
2022/05/17 00:04:21;;;;;;;4.67;3.37;;;;;;;17.55;59.97;100332.96;2923198;80;21035;-85
2022/05/17 00:08:22;;;;;;;3.83;3.00;;;;;;;17.55;60.06;100326.23;2925206;80;21597;-85
2022/05/17 00:12:23;;;;;;;7.92;3.62;;;;;;;17.52;60.87;100329.27;2940714;80;21015;-86
2022/05/17 00:16:26;;;;;;;11.30;3.33;;;;;;;17.47;61.46;100326.27;2929638;80;21061;-86
2022/05/17 00:20:28;;;;;;;6.17;3.50;;;;;;;17.39;61.40;100317.21;2879612;80;20968;-85
2022/05/17 00:24:29;;;;;;;5.80;3.37;;;;;;;17.35;61.85;100315.84;2899744;80;21034;-85
2022/05/17 00:28:30;;;;;;;4.90;4.10;;;;;;;17.28;61.53;100321.05;2929950;80;21050;-86
2022/05/17 00:32:31;;;;;;;4.30;3.42;;;;;;;17.24;61.80;100311.66;2929157;79;20980;-86
2022/05/17 00:36:34;;;;;;;6.28;4.22;;;;;;;17.17;62.31;100305.28;2908189;81;21034;-86
2022/05/17 00:40:35;;;;;;;7.97;4.15;;;;;;;17.08;62.92;100299.56;2939842;80;21025;-86
2022/05/17 00:44:42;;;;;;;7.62;4.62;;;;;;;16.93;63.31;100288.63;2902505;81;22426;-85
2022/05/17 00:48:44;;;;;;;17.57;7.67;;;;;;;16.86;63.30;100292.48;2900073;81;21017;-86
2022/05/17 00:52:56;;;;;;;11.90;7.42;;;;;;;16.76;63.64;100298.01;2929244;81;21108;-86
2022/05/17 00:57:06;;;;;;;24.95;7.35;;;;;;;16.65;63.71;100289.77;2915466;81;21555;-86
2022/05/17 01:01:15;;;;;;;11.25;7.72;;;;;;;16.59;63.55;100287.75;2904708;81;21034;-86
2022/05/17 01:05:19;;;;;;;9.23;5.22;;;;;;;16.56;63.93;100282.20;2909549;81;20971;-86
2022/05/17 01:09:23;;;;;;;12.73;6.40;;;;;;;16.49;63.91;100284.36;2911851;81;21059;-86
2022/05/17 01:17:45;;;;;;;12.58;7.10;;;;;;;16.34;64.08;100255.50;2952156;79;21039;-85
2022/05/17 01:21:46;;;;;;;11.68;6.00;;;;;;;16.21;64.17;100268.54;2851796;81;21012;-86
2022/05/17 01:25:47;;;;;;;10.05;5.53;;;;;;;16.11;64.14;100273.55;2909373;81;21062;-86
2022/05/17 01:29:50;;;;;;;10.35;4.90;;;;;;;16.09;64.25;100280.08;2898902;81;21031;-86
2022/05/17 01:33:51;;;;;;;6.22;4.80;;;;;;;16.06;64.17;100282.57;2928832;80;21058;-86
2022/05/17 01:37:56;;;;;;;11.83;4.75;;;;;;;16.02;64.61;100291.13;2920633;80;21070;-85
2022/05/17 01:41:57;;;;;;;8.83;3.35;;;;;;;16.01;64.71;100294.30;2922224;80;20979;-85
2022/05/17 01:46:05;;;;;;;6.95;3.62;;;;;;;16.03;65.17;100290.95;2888328;80;21065;-85
2022/05/17 01:50:07;;;;;;;7.65;4.25;;;;;;;16.01;66.04;100282.22;2927451;80;21045;-85
2022/05/17 01:54:09;;;;;;;5.58;4.05;;;;;;;15.94;66.22;100282.55;2919405;80;21007;-85
2022/05/17 01:58:10;;;;;;;6.87;4.35;;;;;;;15.90;67.34;100275.80;2921278;80;20995;-86
2022/05/17 02:02:11;;;;;;;7.12;4.22;;;;;;;15.83;67.05;100279.61;2955204;80;21609;-86
2022/05/17 02:06:12;;;;;;;6.10;3.95;;;;;;;15.80;67.07;100282.10;2932361;79;20986;-85
2022/05/17 02:10:14;;;;;;;9.03;5.50;;;;;;;15.77;68.46;100287.80;2923846;80;21045;-85
2022/05/17 02:14:17;;;;;;;12.28;5.92;;;;;;;15.66;68.51;100290.73;2902434;81;21068;-86
2022/05/17 02:18:18;;;;;;;10.68;5.42;;;;;;;15.56;68.49;100286.34;2900732;80;21113;-85
2022/05/17 02:22:19;;;;;;;8.25;4.97;;;;;;;15.52;68.96;100276.91;2946460;79;20974;-85
2022/05/17 02:26:20;;;;;;;10.18;5.60;;;;;;;15.49;68.74;100272.39;2953819;79;21045;-85
2022/05/17 02:30:22;;;;;;;8.20;4.65;;;;;;;15.50;68.97;100276.23;2918648;80;21049;-85
2022/05/17 02:34:23;;;;;;;8.93;4.10;;;;;;;15.54;67.76;100266.89;2953954;80;20978;-85
2022/05/17 02:38:24;;;;;;;12.85;5.62;;;;;;;15.59;67.57;100274.44;2954086;80;20998;-85
2022/05/17 02:42:25;;;;;;;9.28;4.58;;;;;;;15.60;68.42;100283.34;2917834;80;21029;-85
2022/05/17 02:46:30;;;;;;;10.68;5.28;;;;;;;15.54;68.22;100277.63;2906155;80;21062;-85
2022/05/17 02:50:32;;;;;;;8.35;4.70;;;;;;;15.59;69.81;100269.08;2915767;79;21050;-84
2022/05/17 02:54:33;;;;;;;7.40;4.42;;;;;;;15.54;71.03;100266.89;2930494;80;21569;-86
2022/05/17 02:58:36;;;;;;;6.67;4.15;;;;;;;15.55;70.58;100269.06;2921642;79;21037;-86
2022/05/17 03:02:37;;;;;;;7.03;4.22;;;;;;;15.59;70.00;100274.95;2921041;80;21054;-86
2022/05/17 03:06:38;;;;;;;6.58;3.83;;;;;;;15.68;69.79;100276.67;2938262;80;20998;-86
2022/05/17 03:10:39;;;;;;;7.62;4.67;;;;;;;15.79;69.76;100283.11;2871978;81;20984;-86
2022/05/17 03:14:40;;;;;;;7.87;5.33;;;;;;;15.78;70.18;100292.16;2914799;80;21604;-86
2022/05/17 03:18:41;;;;;;;6.50;3.62;;;;;;;15.71;71.04;100289.27;2909225;81;20995;-85
2022/05/17 03:22:42;;;;;;;7.28;4.72;;;;;;;15.59;70.58;100284.34;2846593;82;20999;-85
2022/05/17 03:26:43;;;;;;;7.60;4.15;;;;;;;15.64;70.91;100285.55;2892730;82;20952;-86
2022/05/17 03:30:45;;;;;;;8.65;5.87;;;;;;;15.70;71.32;100287.59;2866740;81;20973;-86
2022/05/17 03:34:46;;;;;;;88.15;15.60;;;;;;;15.72;71.05;100292.77;2879014;81;20995;-86
2022/05/17 03:38:47;;;;;;;13.93;5.53;;;;;;;15.73;71.77;100302.53;2899028;81;21031;-85
2022/05/17 03:42:48;;;;;;;10.18;5.15;;;;;;;15.79;71.98;100307.24;2885327;81;21061;-85
2022/05/17 03:46:49;;;;;;;10.48;4.35;;;;;;;15.80;71.86;100302.70;2869614;81;21022;-86
2022/05/17 03:50:51;;;;;;;11.08;4.42;;;;;;;15.91;71.67;100298.45;2893453;81;21083;-86
2022/05/17 03:54:56;;;;;;;12.07;5.58;;;;;;;16.00;71.26;100300.66;2885048;82;21051;-85
2022/05/17 03:58:57;;;;;;;10.53;5.92;;;;;;;16.03;70.59;100302.20;2931483;79;21006;-86
2022/05/17 04:02:59;;;;;;;9.55;4.40;;;;;;;16.10;70.51;100295.17;2872227;81;21036;-85
2022/05/17 04:07:00;;;;;;;10.23;5.17;;;;;;;16.16;70.00;100292.34;2862875;82;21049;-85
2022/05/17 04:11:01;;;;;;;7.15;3.95;;;;;;;16.23;69.58;100296.91;2854810;81;21007;-86
2022/05/17 04:15:06;;;;;;;8.70;5.05;;;;;;;16.34;69.33;100299.79;2919390;81;21063;-86
2022/05/17 04:19:07;;;;;;;8.65;5.03;;;;;;;16.45;68.67;100298.64;2911547;80;21051;-86
2022/05/17 04:23:09;;;;;;;5.28;2.98;;;;;;;16.48;68.46;100293.42;2894872;81;21057;-85
2022/05/17 04:27:12;;;;;;;8.95;5.45;;;;;;;16.47;67.69;100295.77;2913017;81;21307;-86
2022/05/17 04:31:14;;;;;;;5.60;4.78;;;;;;;16.48;67.35;100288.91;2891606;80;21537;-86
2022/05/17 04:35:17;;;;;;;9.80;4.78;;;;;;;16.48;67.34;100293.42;2921594;80;21026;-86
2022/05/17 04:39:18;;;;;;;20.68;5.72;;;;;;;16.48;67.19;100292.94;2923378;80;20983;-88
2022/05/17 04:43:20;;;;;;;7.10;4.25;;;;;;;16.53;67.04;100291.11;2921434;80;21499;-87
2022/05/17 04:47:21;;;;;;;8.65;4.42;;;;;;;16.54;67.15;100299.50;2924733;80;20963;-87
2022/05/17 04:51:22;;;;;;;10.65;5.53;;;;;;;16.58;68.48;100316.95;2924168;80;21066;-86
2022/05/17 04:55:23;;;;;;;17.52;5.15;;;;;;;16.55;70.50;100317.29;2902891;81;21007;-85
2022/05/17 04:59:25;;;;;;;36.33;8.53;;;;;;;16.49;70.43;100315.24;2916052;81;21037;-86
2022/05/17 05:03:26;;;;;;;19.77;6.75;;;;;;;16.53;71.13;100319.30;2903761;81;21006;-87
2022/05/17 05:07:27;;;;;;;23.73;5.85;;;;;;;16.71;71.17;100323.19;2898665;80;20998;-87
2022/05/17 05:11:28;;;;;;;6.30;4.62;;;;;;;16.88;72.51;100326.72;2912280;81;21030;-85
2022/05/17 05:15:29;;;;;;;7.55;4.45;;;;;;;17.02;72.14;100324.42;2911933;81;21073;-86
2022/05/17 05:19:31;;;;;;;7.20;3.67;;;;;;;17.14;72.13;100324.44;2898400;81;21015;-87
2022/05/17 05:23:32;;;;;;;8.68;4.60;;;;;;;17.27;71.22;100327.96;2871113;81;21100;-85
2022/05/17 05:27:39;;;;;;;9.55;4.87;;;;;;;17.38;71.20;100319.53;2908004;80;21081;-87
2022/05/17 05:31:41;;;;;;;8.18;4.65;;;;;;;17.62;71.33;100331.77;2913196;80;21025;-86
2022/05/17 05:35:42;;;;;;;9.70;5.33;;;;;;;17.78;70.54;100330.41;2915796;80;21050;-87
2022/05/17 05:39:43;;;;;;;7.72;4.33;;;;;;;18.04;68.50;100329.33;2927051;80;20979;-87
2022/05/17 05:43:44;;;;;;;13.78;4.70;;;;;;;18.28;67.94;100319.50;2926986;80;21015;-86
2022/05/17 05:47:45;;;;;;;6.42;3.80;;;;;;;18.47;63.53;100323.59;2915694;80;21043;-87
2022/05/17 05:51:47;;;;;;;6.90;4.45;;;;;;;18.62;63.16;100325.53;2904135;80;21050;-86
2022/05/17 05:55:57;;;;;;;7.33;4.35;;;;;;;18.70;62.29;100329.02;2937865;80;21277;-86
2022/05/17 05:59:57;;;;;;;7.15;4.10;;;;;;;18.74;61.90;100334.05;2907647;81;21086;-87
2022/05/17 06:03:58;;;;;;;7.50;4.20;;;;;;;18.75;61.42;100327.64;2894055;81;21054;-87
2022/05/17 06:07:59;;;;;;;9.35;4.10;;;;;;;18.76;61.69;100334.18;2959202;80;20990;-87
2022/05/17 06:12:00;;;;;;;10.90;4.08;;;;;;;18.72;62.76;100340.12;2966434;79;21025;-87
2022/05/17 06:16:02;;;;;;;6.35;3.42;;;;;;;18.74;61.70;100347.52;2884283;80;21106;-86
2022/05/17 06:20:05;;;;;;;5.87;4.12;;;;;;;18.72;62.14;100349.55;2946034;79;20986;-87
2022/05/17 06:24:08;;;;;;;8.88;4.72;;;;;;;18.70;62.62;100349.22;2960773;79;21001;-87
2022/05/17 06:28:10;;;;;;;6.83;3.87;;;;;;;18.72;61.87;100340.95;2929265;80;21010;-86
2022/05/17 06:32:15;;;;;;;7.42;3.67;;;;;;;18.72;62.08;100348.20;2926220;80;21018;-87
2022/05/17 06:36:16;;;;;;;8.65;4.28;;;;;;;18.73;61.57;100359.31;2911673;80;21102;-87
2022/05/17 06:40:17;;;;;;;6.85;4.67;;;;;;;18.68;61.31;100345.87;2924521;80;21033;-87
2022/05/17 06:44:18;;;;;;;9.88;4.65;;;;;;;18.68;61.15;100342.33;2923836;80;21085;-86
2022/05/17 06:48:20;;;;;;;7.92;4.85;;;;;;;18.73;61.34;100339.11;2924682;80;21039;-87
2022/05/17 06:52:27;;;;;;;6.33;4.85;;;;;;;18.75;61.57;100344.63;2922484;80;20959;-86
2022/05/17 06:56:27;;;;;;;10.63;4.97;;;;;;;18.82;61.94;100346.10;2939105;80;21574;-85
2022/05/17 07:00:28;;;;;;;11.78;4.53;;;;;;;18.89;61.59;100344.39;2927420;80;21022;-85
2022/05/17 07:04:30;;;;;;;14.80;3.95;;;;;;;18.89;60.88;100343.05;2927025;80;21026;-86
2022/05/17 07:08:31;;;;;;;7.72;4.28;;;;;;;18.88;61.27;100349.95;2924335;80;21006;-87
2022/05/17 07:16:51;;;;;;;3.50;3.20;;;;;;;18.91;62.71;100367.10;2917327;80;21043;-86
2022/05/17 07:20:52;;;;;;;4.50;3.20;;;;;;;18.91;62.34;100367.95;2914842;79;21554;-86
2022/05/17 07:24:54;;;;;;;11.33;4.67;;;;;;;18.94;62.26;100375.67;2930062;80;20990;-86
2022/05/17 07:28:55;;;;;;;17.52;4.30;;;;;;;18.98;62.67;100384.25;2930985;80;21375;-87
2022/05/17 07:32:56;;;;;;;15.83;5.05;;;;;;;19.03;62.88;100387.77;2909256;81;21106;-87
2022/05/17 07:36:57;;;;;;;6.40;4.15;;;;;;;19.10;62.54;100392.80;2901446;81;21093;-87
2022/05/17 07:40:58;;;;;;;10.30;4.90;;;;;;;19.19;60.64;100398.44;2933231;80;21077;-86
2022/05/17 07:44:59;;;;;;;4.85;4.05;;;;;;;19.22;60.67;100404.81;2929887;80;21004;-87
2022/05/17 07:49:02;;;;;;;8.05;5.03;;;;;;;19.25;62.12;100395.54;2849822;80;29374;-87
2022/05/17 07:53:10;;;;;;;10.32;4.37;;;;;;;19.35;61.27;100406.08;2938587;80;21043;-87
2022/05/17 07:57:11;;;;;;;10.63;4.97;;;;;;;19.47;61.36;100416.78;2934838;80;21011;-87
2022/05/17 08:01:12;;;;;;;5.37;4.17;;;;;;;19.58;61.23;100422.75;2923172;80;21006;-87
2022/05/17 08:05:14;;;;;;;8.10;4.30;;;;;;;19.64;61.84;100418.81;2877058;80;21022;-86
2022/05/17 08:09:16;;;;;;;9.38;4.35;;;;;;;19.71;61.82;100425.68;2892345;80;21000;-87
2022/05/17 08:13:20;;;;;;;10.15;4.95;;;;;;;19.69;61.76;100431.77;2923655;80;20991;-87
2022/05/17 08:17:21;;;;;;;11.40;3.95;;;;;;;19.65;62.28;100435.83;2923097;80;21003;-84
2022/05/17 08:21:22;;;;;;;9.05;3.95;;;;;;;19.57;62.58;100442.16;2933322;79;21483;-84
2022/05/17 08:29:44;;;;;;;5.22;3.37;;;;;;;19.38;64.92;100461.01;2926034;80;21577;-85
2022/05/17 08:33:45;;;;;;;4.15;3.30;;;;;;;19.25;65.97;100461.08;2930646;80;21014;-85
2022/05/17 08:37:46;;;;;;;5.62;4.10;;;;;;;19.12;66.17;100467.59;2908159;80;20999;-85
2022/05/17 08:41:53;;;;;;;8.33;4.17;;;;;;;19.06;67.26;100473.67;2905194;81;21031;-84
2022/05/17 08:46:19;;;;;;;6.60;3.65;;;;;;;19.03;68.46;100474.03;2897494;81;21089;-86
2022/05/17 08:50:28;;;;;;;5.92;4.12;;;;;;;18.97;68.68;100472.88;2893017;81;21027;-84
2022/05/17 08:54:42;;;;;;;7.58;3.58;;;;;;;19.01;69.04;100474.72;2908855;81;21027;-86
2022/05/17 08:58:48;;;;;;;4.97;4.30;;;;;;;19.04;69.38;100481.09;2895838;80;21038;-87
2022/05/17 09:02:55;;;;;;;;;;;;;;;19.05;69.23;100484.13;2954728;80;21031;-86
2022/05/17 09:07:08;;;;;;;7.70;4.50;;;;;;;19.01;70.30;100490.39;2952035;80;20145;-86
2022/05/17 09:11:20;;;;;;;13.90;4.75;;;;;;;18.94;70.13;100486.19;2948836;79;20983;-86
2022/05/17 09:15:22;;;;;;;12.33;3.72;;;;;;;18.89;70.50;100491.27;2896101;80;21058;-86
2022/05/17 09:19:23;;;;;;;7.65;4.53;;;;;;;18.88;71.41;100497.67;2904062;81;21019;-86
2022/05/17 09:23:24;;;;;;;9.80;4.33;;;;;;;18.79;70.98;100500.05;2897710;81;20992;-87
2022/05/17 09:27:38;;;;;;;15.72;4.28;;;;;;;18.75;71.37;100496.04;2919708;81;21055;-86
2022/05/17 09:31:39;;;;;;;9.83;4.12;;;;;;;18.67;71.60;100500.45;2886688;81;21054;-85
2022/05/17 09:35:56;;;;;;;8.18;4.53;;;;;;;18.59;70.80;100495.08;2858617;81;21003;-86
2022/05/17 09:39:56;;;;;;;5.58;4.22;;;;;;;18.57;71.11;100499.80;2877952;82;21039;-86
2022/05/17 09:44:05;;;;;;;5.22;4.03;;;;;;;18.54;72.12;100495.59;2920431;80;21042;-86
2022/05/17 09:48:10;;;;;;;8.03;4.17;;;;;;;18.50;72.88;100498.83;2944857;80;21038;-86
2022/05/17 09:56:41;;;;;;;6.72;4.60;;;;;;;18.37;74.09;100496.16;2908415;81;21010;-87
2022/05/17 10:00:48;;;;;;;7.33;4.90;;;;;;;18.29;74.67;100492.14;2838753;82;20975;-87
2022/05/17 10:04:49;;;;;;;4.37;3.37;;;;;;;18.30;74.10;100495.17;2945293;80;21003;-85
2022/05/17 10:09:04;;;;;;;7.03;4.50;;;;;;;18.36;73.44;100493.12;2945932;80;21010;-84
2022/05/17 10:13:23;;;;;;;9.53;5.62;;;;;;;18.46;73.70;100500.16;2905820;81;20979;-87
2022/05/17 10:17:37;;;;;;;10.65;5.25;;;;;;;18.56;74.85;100507.55;2907641;81;20999;-86
2022/05/17 10:22:22;;;;;;;12.80;5.33;;;;;;;18.63;74.76;100515.27;2914991;80;21006;-86
2022/05/17 10:26:35;;;;;;;6.40;4.83;;;;;;;18.66;75.00;100520.30;2926276;80;21037;-86
2022/05/17 10:30:57;;;;;;;7.85;5.42;;;;;;;18.72;75.29;100528.20;2926783;80;21046;-87
2022/05/17 10:35:03;;;;;;;8.35;5.22;;;;;;;18.67;75.03;100543.56;2926497;80;21054;-86
2022/05/17 10:39:15;;;;;;;8.65;4.37;;;;;;;18.63;75.76;100544.90;2897898;80;21039;-86
2022/05/17 10:43:27;;;;;;;6.12;3.65;;;;;;;18.62;76.70;100549.95;2825212;83;21027;-87
2022/05/17 10:47:48;;;;;;;6.72;4.62;;;;;;;18.60;76.21;100560.59;2819687;83;21050;-86
2022/05/17 10:52:03;;;;;;;8.08;4.12;;;;;;;18.69;75.43;100555.00;2831135;83;21076;-85
2022/05/17 10:57:00;;;;;;;11.97;4.87;;;;;;;18.72;75.00;100561.06;2823779;81;21031;-87
2022/05/17 11:01:24;;;;;;;6.92;4.83;;;;;;;18.84;75.97;100563.70;2817923;83;21071;-86
2022/05/17 11:05:39;;;;;;;4.67;3.47;;;;;;;18.85;73.53;100570.77;2817946;83;21059;-87
2022/05/17 11:10:04;;;;;;;5.62;3.37;;;;;;;18.92;72.28;100577.66;2792169;85;21017;-86
2022/05/17 11:14:19;;;;;;;7.53;4.47;;;;;;;19.07;72.26;100573.78;2791824;85;21069;-86
2022/05/17 11:18:28;;;;;;;7.97;4.03;;;;;;;19.18;71.49;100582.81;2813463;82;21026;-86
2022/05/17 11:22:56;;;;;;;5.60;4.37;;;;;;;19.29;71.22;100590.19;2896674;81;21071;-87
2022/05/17 11:27:07;;;;;;;6.55;3.80;;;;;;;19.32;70.10;100583.92;2895598;82;21124;-86
2022/05/17 11:31:22;;;;;;;6.45;3.67;;;;;;;19.32;70.45;100583.09;2895656;82;21689;-84
2022/05/17 11:35:37;;;;;;;8.30;4.30;;;;;;;19.40;70.25;100588.44;2809274;83;21036;-85
2022/05/17 11:39:47;;;;;;;5.57;3.40;;;;;;;19.40;69.34;100586.59;2909749;81;21018;-86
2022/05/17 11:43:53;;;;;;;9.50;5.62;;;;;;;19.41;69.78;100594.16;2852657;82;21020;-85
2022/05/17 11:47:58;;;;;;;11.18;4.53;;;;;;;19.36;70.49;100599.25;2932994;80;21778;-85
2022/05/17 11:52:08;;;;;;;6.33;4.70;;;;;;;19.22;70.88;100604.36;2957547;80;20979;-85
2022/05/17 11:56:32;;;;;;;4.83;3.92;;;;;;;19.12;72.15;100600.52;2925255;80;20994;-86
2022/05/17 12:00:41;;;;;;;6.78;4.55;;;;;;;19.03;72.80;100596.69;2927149;80;21101;-85
2022/05/17 12:04:44;;;;;;;15.63;3.87;;;;;;;19.02;74.28;100597.70;2924362;80;21026;-86
2022/05/17 12:08:46;;;;;;;8.98;4.53;;;;;;;18.99;76.09;100590.82;2923792;80;21061;-85
2022/05/17 12:13:09;;;;;;;5.58;4.50;;;;;;;18.91;78.36;100569.23;2903851;81;21444;-85
2022/05/17 12:17:21;;;;;;;6.75;4.00;;;;;;;18.89;77.57;100580.20;2937436;80;21002;-87
2022/05/17 12:21:56;;;;;;;8.28;4.50;;;;;;;18.93;79.53;100610.33;2928340;80;21000;-86
2022/05/17 12:26:12;;;;;;;8.55;3.72;;;;;;;18.89;77.52;100596.37;2922774;80;21079;-87
2022/05/17 12:34:57;;;;;;;9.68;4.35;;;;;;;19.19;74.78;100603.36;2909213;81;21014;-86
2022/05/17 12:43:31;;;;;;;5.08;3.80;;;;;;;19.57;74.50;100624.77;2882263;82;21011;-86
2022/05/17 12:47:43;;;;;;;9.80;4.15;;;;;;;19.74;71.48;100617.41;2902278;81;20987;-87
2022/05/17 12:51:49;;;;;;;6.85;4.90;;;;;;;19.80;69.20;100610.80;2890414;81;21034;-85
2022/05/17 12:56:09;;;;;;;4.90;3.98;;;;;;;19.93;69.29;100611.58;2904215;81;20999;-84
2022/05/17 13:00:24;;;;;;;7.00;4.00;;;;;;;20.03;65.62;100605.94;2914075;80;21020;-86
2022/05/17 13:04:38;;;;;;;7.55;4.60;;;;;;;20.11;65.90;100616.69;2901194;81;21046;-86
2022/05/17 13:08:40;;;;;;;6.47;4.50;;;;;;;20.19;67.05;100622.55;2917100;81;21057;-87
2022/05/17 13:12:42;;;;;;;11.73;5.37;;;;;;;20.32;66.49;100621.06;2912655;80;21027;-86
2022/05/17 13:16:45;;;;;;;8.65;4.83;;;;;;;20.44;65.59;100620.12;2891750;80;20990;-89
2022/05/17 13:20:50;;;;;;;5.92;4.92;;;;;;;20.61;66.24;100621.64;2904164;80;21046;-90
2022/05/17 13:24:56;;;;;;;6.03;5.53;;;;;;;20.88;66.72;100622.09;2907546;80;21019;-88
2022/05/17 13:29:23;;;;;;;6.70;5.47;;;;;;;21.07;65.16;100620.69;2915007;79;21034;-90
2022/05/17 13:33:34;;;;;;;8.80;4.78;;;;;;;21.30;64.87;100621.61;2945016;79;21072;-85
2022/05/17 13:38:05;;;;;;;7.50;5.35;;;;;;;21.41;64.87;100623.81;2948121;79;20978;-86
2022/05/17 13:42:31;;;;;;;10.32;6.05;;;;;;;21.51;63.11;100629.78;2948539;79;21034;-86
2022/05/17 13:46:39;;;;;;;7.47;4.85;;;;;;;21.67;63.34;100623.85;2904090;80;21006;-86
2022/05/17 13:50:40;;;;;;;8.80;6.53;;;;;;;21.77;64.33;100623.02;2932898;80;21028;-86
2022/05/17 13:54:49;;;;;;;9.78;4.90;;;;;;;22.13;63.64;100627.22;2905800;80;21033;-85
2022/05/17 13:58:50;;;;;;;10.35;6.10;;;;;;;22.25;64.62;100625.68;2898169;80;21530;-85
2022/05/17 14:02:57;;;;;;;12.03;5.80;;;;;;;22.51;61.95;100628.31;2903952;80;21029;-85
2022/05/17 14:07:22;;;;;;;13.90;6.03;;;;;;;22.50;62.37;100629.34;2961194;80;21565;-86
2022/05/17 14:11:52;;;;;;;12.98;6.10;;;;;;;22.34;62.34;100629.09;2963949;80;21065;-86
2022/05/17 14:15:54;;;;;;;13.30;6.22;;;;;;;22.38;62.21;100632.55;2902969;81;21030;-86
2022/05/17 14:20:00;;;;;;;9.03;6.03;;;;;;;22.25;61.47;100627.86;2917565;80;21039;-85
2022/05/17 14:24:02;;;;;;;8.03;6.10;;;;;;;22.01;63.43;100634.53;2924279;79;21186;-89
2022/05/17 14:28:04;;;;;;;9.55;6.22;;;;;;;21.93;62.88;100631.92;2928635;79;21211;-88
2022/05/17 14:32:06;;;;;;;6.12;5.53;;;;;;;21.93;63.29;100629.22;2936656;78;21041;-86
2022/05/17 14:36:13;;;;;;;9.58;5.53;;;;;;;21.92;63.57;100638.38;2942289;78;21173;-88
2022/05/17 14:40:15;;;;;;;6.95;5.17;;;;;;;21.92;64.14;100632.96;2925252;80;21014;-90
2022/05/17 14:44:17;;;;;;;13.83;5.80;;;;;;;21.93;63.81;100635.99;2925680;79;20983;-88
2022/05/17 14:48:22;;;;;;;15.35;5.62;;;;;;;21.91;64.30;100641.61;2931412;80;21035;-89
2022/05/17 14:52:24;;;;;;;;;;;;;;;21.94;64.26;100640.37;2932561;79;21003;-88
2022/05/17 14:56:26;;;;;;;7.37;5.58;;;;;;;21.96;63.93;100635.10;2952593;79;20170;-87
2022/05/17 15:00:29;;;;;;;6.62;4.70;;;;;;;21.95;64.40;100631.22;2940787;80;21086;-87
2022/05/17 15:04:32;;;;;;;8.05;5.95;;;;;;;22.00;63.54;100640.13;2947693;80;21491;-87
2022/05/17 15:08:34;;;;;;;13.53;5.05;;;;;;;21.97;63.84;100633.22;2947284;80;21031;-88
2022/05/17 15:12:36;;;;;;;18.12;8.03;;;;;;;21.96;63.43;100634.25;2947361;80;21047;-87
2022/05/17 15:16:39;;;;;;;8.50;5.08;;;;;;;21.90;63.37;100629.61;2914726;80;21060;-88
2022/05/17 15:20:41;;;;;;;10.60;5.05;;;;;;;21.90;64.71;100631.78;2878113;80;21565;-89
2022/05/17 15:24:44;;;;;;;9.73;6.03;;;;;;;22.03;64.34;100632.97;2898261;81;21035;-89
2022/05/17 15:28:46;;;;;;;10.35;4.87;;;;;;;22.20;63.75;100624.05;2941022;79;21066;-86
2022/05/17 15:32:48;;;;;;;4.67;4.17;;;;;;;22.33;64.41;100622.81;2935596;79;21023;-88
2022/05/17 15:36:51;;;;;;;8.95;5.28;;;;;;;22.39;63.74;100624.73;2897122;80;20995;-88
2022/05/17 15:40:55;;;;;;;7.62;5.42;;;;;;;22.41;63.35;100628.62;2950602;79;21065;-86
2022/05/17 15:44:56;;;;;;;27.80;8.53;;;;;;;22.25;62.82;100628.39;2951250;79;21582;-87
2022/05/17 15:53:22;;;;;;;7.90;5.10;;;;;;;22.08;64.83;100626.44;2899967;80;21062;-89
2022/05/17 15:57:23;;;;;;;14.03;6.55;;;;;;;22.10;65.26;100621.16;2924116;79;21039;-88
2022/05/17 16:01:27;;;;;;;10.95;5.30;;;;;;;22.19;66.06;100618.31;2884355;80;21558;-88
2022/05/17 16:05:28;;;;;;;8.25;5.05;;;;;;;22.30;64.67;100615.08;2896275;81;21038;-88
2022/05/17 16:09:29;;;;;;;11.35;4.55;;;;;;;22.40;62.10;100621.52;2900901;81;21023;-88
2022/05/17 16:13:30;;;;;;;12.28;4.87;;;;;;;22.52;62.75;100620.50;2906404;81;20998;-88
2022/05/17 16:17:32;;;;;;;6.17;4.62;;;;;;;22.56;61.83;100626.38;2901553;81;21054;-89
2022/05/17 16:21:33;;;;;;;5.97;5.05;;;;;;;22.53;60.86;100620.81;2905229;81;21550;-88
2022/05/17 16:25:37;;;;;;;13.65;5.12;;;;;;;22.51;63.10;100617.47;2906927;81;21474;-88
2022/05/17 16:29:39;;;;;;;6.80;4.37;;;;;;;22.48;62.42;100615.98;2900035;80;21106;-88
2022/05/17 16:33:40;;;;;;;7.37;4.05;;;;;;;22.47;63.69;100619.72;2890716;81;21077;-89
2022/05/17 16:37:41;;;;;;;5.20;3.95;;;;;;;22.45;60.00;100625.01;2853466;80;20995;-89
2022/05/17 16:41:43;;;;;;;7.22;4.22;;;;;;;22.40;60.72;100631.86;2883487;81;21081;-88
2022/05/17 16:45:46;;;;;;;4.33;1.95;;;;;;;22.37;59.06;100629.52;2935893;80;21010;-87
2022/05/17 16:49:47;;;;;;;2.87;1.77;;;;;;;22.29;54.64;100635.09;2905513;80;21023;-88
2022/05/17 16:53:48;;;;;;;4.17;1.62;;;;;;;22.20;50.29;100628.11;2915282;80;21045;-88
2022/05/17 16:57:49;;;;;;;2.60;1.05;;;;;;;22.09;51.06;100636.24;2947779;80;21734;-89
2022/05/17 17:01:54;;;;;;;2.85;1.15;;;;;;;21.94;49.72;100630.89;2890559;81;21480;-88
2022/05/17 17:05:55;;;;;;;6.95;1.10;;;;;;;21.80;50.79;100633.45;2964948;79;21038;-87
2022/05/17 17:09:56;;;;;;;4.53;3.05;;;;;;;21.68;50.61;100629.06;2914625;81;21589;-88
2022/05/17 17:13:57;;;;;;;4.42;1.30;;;;;;;21.58;51.09;100626.30;2963430;79;21013;-88
2022/05/17 17:18:00;;;;;;;5.08;2.27;;;;;;;21.50;51.57;100629.45;2899091;81;21058;-88
2022/05/17 17:22:01;;;;;;;4.17;1.20;;;;;;;21.41;52.04;100629.22;2949043;80;21004;-88
2022/05/17 17:26:03;;;;;;;5.75;1.60;;;;;;;21.34;52.26;100640.48;2915744;81;20960;-88
2022/05/17 17:30:07;;;;;;;3.17;1.42;;;;;;;21.21;50.43;100640.63;2910551;81;21050;-88
2022/05/17 17:38:30;;;;;;;2.12;1.02;;;;;;;20.82;52.75;100647.14;2884064;81;21047;-88
2022/05/17 17:42:32;;;;;;;3.95;0.95;;;;;;;20.60;52.74;100645.64;2908856;81;21665;-87
2022/05/17 17:46:35;;;;;;;2.75;1.30;;;;;;;20.43;52.42;100663.02;2910529;81;21558;-89
2022/05/17 17:50:36;;;;;;;1.98;1.80;;;;;;;20.23;53.22;100666.21;2885760;82;21026;-88
2022/05/17 17:54:37;;;;;;;3.15;1.40;;;;;;;20.04;53.62;100666.19;2946949;80;21057;-88
2022/05/17 17:58:39;;;;;;;4.20;1.37;;;;;;;19.87;53.73;100671.66;2943615;80;21033;-88
2022/05/17 18:02:41;;;;;;;2.25;2.00;;;;;;;19.73;54.00;100677.30;2912535;79;21033;-88
2022/05/17 18:06:42;;;;;;;3.58;1.98;;;;;;;19.63;53.83;100682.06;2927989;80;21515;-86
2022/05/17 18:10:45;;;;;;;2.08;1.55;;;;;;;19.52;53.78;100681.45;2890501;82;21351;-86
2022/05/17 18:14:46;;;;;;;4.03;1.10;;;;;;;19.40;54.13;100686.39;2912561;81;21554;-86
2022/05/17 18:18:47;;;;;;;3.95;2.25;;;;;;;19.21;54.95;100691.66;2900407;80;21514;-87
2022/05/17 18:22:49;;;;;;;1.45;1.15;;;;;;;19.03;56.04;100687.84;2898702;79;21007;-86
2022/05/17 18:26:52;;;;;;;1.85;1.20;;;;;;;18.81;57.52;100695.60;2925404;79;21061;-85
2022/05/17 18:30:56;;;;;;;3.00;1.80;;;;;;;18.58;58.05;100696.78;2901647;80;21007;-85
2022/05/17 18:35:00;;;;;;;6.17;1.87;;;;;;;18.32;59.24;100707.70;2902734;80;21057;-86
2022/05/17 18:39:02;;;;;;;7.40;2.30;;;;;;;18.13;59.39;100713.25;2888658;81;21077;-86
2022/05/17 18:43:03;;;;;;;11.03;2.95;;;;;;;17.98;59.71;100724.27;2904816;81;21035;-87
2022/05/17 18:47:09;;;;;;;4.45;2.77;;;;;;;17.81;60.45;100724.22;2931780;80;21472;-86
2022/05/17 18:51:11;;;;;;;4.62;3.45;;;;;;;17.65;61.42;100736.25;2902401;81;21023;-86
2022/05/17 18:55:26;;;;;;;67.17;12.47;;;;;;;17.46;63.06;100734.15;2890866;81;21042;-85
2022/05/17 18:59:31;;;;;;;18.17;5.53;;;;;;;17.30;64.63;100745.66;2917055;79;21612;-86
2022/05/17 19:03:33;;;;;;;8.28;4.97;;;;;;;17.15;65.67;100745.41;2893752;80;20995;-86
2022/05/17 19:13:30;;;;;;;12.10;6.28;;;;;;;16.96;67.33;100747.27;2920758;79;21045;-87
2022/05/17 19:16:31;;;;;;;7.72;4.40;;;;;;;16.86;67.77;100757.24;2924745;80;20976;-86
2022/05/17 19:20:35;;;;;;;8.78;5.58;;;;;;;16.75;68.32;100752.95;2920763;79;21063;-87
2022/05/17 19:24:37;;;;;;;7.67;5.58;;;;;;;16.66;68.86;100764.64;2950788;79;21011;-86
2022/05/17 19:28:38;;;;;;;7.65;5.47;;;;;;;16.54;69.09;100770.75;2943263;79;21031;-87
2022/05/17 19:32:40;;;;;;;9.13;6.25;;;;;;;16.42;69.48;100762.91;2940897;79;20979;-88
2022/05/17 19:41:06;;;;;;;9.30;6.78;;;;;;;16.19;70.16;100768.38;2947973;79;21043;-88